Time;durP1;ratioP1;P1;durP2;ratioP2;P2;SDS_P1;SDS_P2;PMS_P1;PMS_P2;Temp;Humidity;BMP_temperature;BMP_pressure;BME280_temperature;BME280_humidity;BME280_pressure;Samples;Min_cycle;Max_cycle;Signal;HPM_P1;HPM_P2
2023/06/18 00:01:17;;;;;;;14.55;11.63;;;;;;;15.18;77.24;101406.34;5033432;28;20021;-70
2023/06/18 00:03:43;;;;;;;15.40;12.73;;;;;;;15.19;77.75;101408.06;5016173;28;20494;-69
2023/06/18 00:06:08;;;;;;;16.10;12.35;;;;;;;15.19;78.24;101417.84;4999651;28;20052;-69
2023/06/18 00:08:34;;;;;;;15.15;11.60;;;;;;;15.19;78.31;101409.88;4999182;28;20060;-70
2023/06/18 00:10:59;;;;;;;15.50;11.48;;;;;;;15.15;78.53;101402.06;5033411;28;20026;-69
2023/06/18 00:13:25;;;;;;;13.95;10.80;;;;;;;15.13;78.25;101395.97;5016228;28;20411;-70
2023/06/18 00:15:50;;;;;;;17.13;11.18;;;;;;;15.14;78.68;101408.34;5015546;28;20037;-70
2023/06/18 00:18:16;;;;;;;16.60;13.15;;;;;;;15.09;77.88;101413.09;5015726;28;20030;-70
2023/06/18 00:20:41;;;;;;;15.27;11.98;;;;;;;15.09;77.71;101405.09;5016400;28;20072;-70
2023/06/18 00:23:06;;;;;;;18.30;12.15;;;;;;;15.04;78.82;101404.50;5015375;28;20117;-70
2023/06/18 00:25:31;;;;;;;14.15;11.68;;;;;;;15.01;78.60;101410.03;5015503;28;20029;-70
2023/06/18 00:27:57;;;;;;;15.60;12.13;;;;;;;14.98;78.60;101399.56;5015965;28;20029;-69
2023/06/18 00:30:22;;;;;;;17.40;12.38;;;;;;;15.02;78.39;101393.94;5033604;28;20022;-71
2023/06/18 00:32:48;;;;;;;18.85;13.57;;;;;;;15.05;78.34;101400.03;5016371;28;20021;-69
2023/06/18 00:35:14;;;;;;;16.63;12.75;;;;;;;14.97;77.94;101396.03;5015343;28;20057;-69
2023/06/18 00:37:43;;;;;;;16.50;13.50;;;;;;;15.01;79.19;101399.38;5015733;28;20021;-70
2023/06/18 00:40:12;;;;;;;14.88;12.38;;;;;;;14.95;78.08;101399.75;5033039;28;20056;-70
2023/06/18 00:42:39;;;;;;;16.42;12.60;;;;;;;14.88;78.45;101393.91;5019496;28;20064;-70
2023/06/18 00:45:05;;;;;;;17.75;12.05;;;;;;;14.86;78.93;101385.16;5019932;28;20108;-71
2023/06/18 00:47:31;;;;;;;16.52;13.10;;;;;;;14.94;79.13;101390.03;5019827;28;20029;-70
2023/06/18 00:49:56;;;;;;;16.13;12.77;;;;;;;14.92;79.04;101394.59;5002834;28;20493;-70
2023/06/18 00:52:23;;;;;;;18.40;12.52;;;;;;;14.86;78.55;101386.03;5033301;28;20032;-69
2023/06/18 00:54:50;;;;;;;16.08;12.65;;;;;;;14.83;79.31;101396.84;5019922;28;20357;-71
2023/06/18 00:57:17;;;;;;;18.02;12.48;;;;;;;14.86;79.08;101396.69;5008072;28;20112;-68
2023/06/18 00:59:42;;;;;;;16.15;12.32;;;;;;;14.84;78.67;101403.91;4999985;28;20034;-69
2023/06/18 01:02:08;;;;;;;15.85;12.98;;;;;;;14.77;79.55;101391.91;5004347;28;20044;-70
2023/06/18 01:04:35;;;;;;;17.35;13.43;;;;;;;14.79;78.66;101390.00;5014436;28;20034;-69
2023/06/18 01:07:01;;;;;;;16.40;12.48;;;;;;;14.76;79.02;101398.13;4999389;28;20117;-69
2023/06/18 01:09:28;;;;;;;14.90;12.27;;;;;;;14.79;79.16;101405.09;4999324;28;20033;-71
2023/06/18 01:11:53;;;;;;;17.20;12.82;;;;;;;14.81;79.73;101404.09;4999164;28;20535;-70
2023/06/18 01:14:25;;;;;;;17.25;12.30;;;;;;;14.81;79.39;101398.75;5016821;28;20054;-69
2023/06/18 01:16:52;;;;;;;16.27;11.90;;;;;;;14.75;80.75;101401.75;4999873;28;20072;-69
2023/06/18 01:19:40;;;;;;;15.98;13.10;;;;;;;14.76;80.45;101395.47;4999799;28;20037;-69
2023/06/18 01:22:14;;;;;;;16.45;13.35;;;;;;;14.66;80.66;101384.50;5016854;28;20030;-69
2023/06/18 01:24:46;;;;;;;17.30;13.57;;;;;;;14.73;80.94;101390.31;4999263;28;20022;-69
2023/06/18 01:27:12;;;;;;;17.88;13.55;;;;;;;14.68;80.17;101392.38;4999262;28;20033;-68
2023/06/18 01:29:39;;;;;;;19.20;14.07;;;;;;;14.68;80.36;101392.38;4999617;28;20490;-69
2023/06/18 01:32:05;;;;;;;15.27;12.40;;;;;;;14.72;80.06;101385.94;4999751;28;20033;-70
2023/06/18 01:34:30;;;;;;;16.45;12.80;;;;;;;14.69;79.80;101388.75;5016830;28;20026;-70
2023/06/18 01:37:09;;;;;;;15.38;12.85;;;;;;;14.72;79.54;101385.94;5016741;28;20162;-72
2023/06/18 01:40:20;;;;;;;17.15;14.18;;;;;;;14.72;78.94;101386.81;4999304;28;20121;-71
2023/06/18 01:42:54;;;;;;;18.58;13.38;;;;;;;14.69;79.11;101392.31;5001110;28;20034;-69
2023/06/18 01:45:30;;;;;;;17.45;12.98;;;;;;;14.64;80.48;101388.19;4999438;28;20509;-69
2023/06/18 01:48:02;;;;;;;18.52;14.05;;;;;;;14.61;80.48;101388.34;5017020;28;20037;-69
2023/06/18 01:50:28;;;;;;;20.08;14.40;;;;;;;14.60;80.42;101384.84;4999601;28;20049;-68
2023/06/18 01:52:57;;;;;;;16.95;12.70;;;;;;;14.55;80.31;101382.44;4998826;28;20026;-69
2023/06/18 01:55:23;;;;;;;19.38;14.13;;;;;;;14.60;80.19;101379.53;5015720;28;20022;-69
2023/06/18 01:57:48;;;;;;;18.02;13.05;;;;;;;14.58;80.96;101384.09;4982271;28;20033;-69
2023/06/18 02:00:14;;;;;;;16.90;12.27;;;;;;;14.58;80.79;101382.25;4998777;28;20033;-69
2023/06/18 02:02:39;;;;;;;15.50;12.38;;;;;;;14.57;80.62;101391.19;4999256;28;20383;-69
2023/06/18 02:05:06;;;;;;;19.17;12.38;;;;;;;14.58;80.00;101382.25;4998383;28;20453;-68
2023/06/18 02:07:31;;;;;;;15.93;13.05;;;;;;;14.52;79.85;101387.94;5015968;28;20018;-70
2023/06/18 02:09:57;;;;;;;18.45;14.38;;;;;;;14.55;80.34;101389.59;4998342;28;20381;-69
2023/06/18 02:12:22;;;;;;;15.60;12.88;;;;;;;14.47;80.94;101382.03;5038106;28;20021;-69
2023/06/18 02:14:47;;;;;;;14.52;12.70;;;;;;;14.48;80.58;101382.91;5055294;28;20029;-69
2023/06/18 02:17:13;;;;;;;18.63;13.88;;;;;;;14.53;80.78;101389.66;5055560;28;20138;-68
2023/06/18 02:19:38;;;;;;;19.00;13.70;;;;;;;14.52;81.24;101376.47;5055423;28;20391;-69
2023/06/18 02:22:04;;;;;;;15.30;12.55;;;;;;;14.52;80.60;101382.63;5056024;28;20037;-69
2023/06/18 02:24:31;;;;;;;17.70;13.15;;;;;;;14.46;80.19;101385.63;5055824;28;20059;-69
2023/06/18 02:26:56;;;;;;;18.15;13.57;;;;;;;14.35;80.29;101382.75;5038266;28;20025;-68
2023/06/18 02:29:21;;;;;;;18.08;13.80;;;;;;;14.44;82.01;101390.19;5055197;28;20028;-68
2023/06/18 02:31:47;;;;;;;19.88;14.63;;;;;;;14.36;81.40;101382.63;5037068;28;20032;-70
2023/06/18 02:34:12;;;;;;;18.33;14.13;;;;;;;14.41;81.40;101387.72;5037471;28;20013;-69
2023/06/18 02:36:38;;;;;;;18.58;14.88;;;;;;;14.41;82.08;101387.72;5054708;28;20021;-69
2023/06/18 02:39:04;;;;;;;17.17;13.68;;;;;;;14.41;81.91;101382.38;5054019;28;20406;-70
2023/06/18 02:41:29;;;;;;;17.10;13.48;;;;;;;14.35;80.37;101391.56;5053843;28;20032;-70
2023/06/18 02:43:54;;;;;;;17.23;12.57;;;;;;;14.42;80.44;101389.44;5020659;28;20021;-70
2023/06/18 02:46:20;;;;;;;18.05;13.98;;;;;;;14.40;81.40;101383.34;5055103;28;20029;-70
2023/06/18 02:48:45;;;;;;;17.33;13.15;;;;;;;14.34;81.50;101389.84;5037261;28;20083;-69
2023/06/18 02:51:11;;;;;;;16.92;13.05;;;;;;;14.31;81.00;101384.72;5020654;28;20074;-69
2023/06/18 02:53:36;;;;;;;18.65;13.35;;;;;;;14.31;81.25;101378.53;5036634;28;20107;-71
2023/06/18 02:56:02;;;;;;;18.08;13.88;;;;;;;14.28;81.35;101391.09;5036815;28;20025;-70
2023/06/18 02:58:30;;;;;;;15.80;13.07;;;;;;;14.29;81.08;101398.13;5054582;28;20025;-69
2023/06/18 03:00:57;;;;;;;19.45;14.60;;;;;;;14.26;81.48;101387.66;5021003;28;20025;-71
2023/06/18 03:03:23;;;;;;;16.92;14.27;;;;;;;14.16;81.28;101385.59;5036096;28;20025;-70
2023/06/18 03:05:49;;;;;;;18.85;13.93;;;;;;;14.20;81.40;101388.00;5054414;28;20036;-70
2023/06/18 03:08:14;;;;;;;18.90;15.25;;;;;;;14.19;81.92;101382.75;5036917;28;20029;-70
2023/06/18 03:10:42;;;;;;;21.83;15.10;;;;;;;14.17;80.67;101372.22;5036575;28;20140;-70
2023/06/18 03:13:07;;;;;;;18.98;14.45;;;;;;;14.29;80.66;101382.16;5036576;28;20451;-69
2023/06/18 03:15:32;;;;;;;17.85;14.13;;;;;;;14.29;81.30;101390.13;5054825;28;20029;-69
2023/06/18 03:17:58;;;;;;;18.63;14.48;;;;;;;14.31;80.54;101390.03;5036404;28;20029;-69
2023/06/18 03:20:23;;;;;;;18.75;14.75;;;;;;;14.24;80.97;101386.88;5019909;28;20029;-71
2023/06/18 03:22:49;;;;;;;18.35;14.15;;;;;;;14.37;80.47;101400.31;5019699;28;20052;-69
2023/06/18 03:25:14;;;;;;;21.17;15.25;;;;;;;14.38;79.97;101395.88;5035871;28;20025;-70
2023/06/18 03:27:40;;;;;;;18.25;14.75;;;;;;;14.40;80.95;101401.97;5036192;28;20035;-69
2023/06/18 03:30:06;;;;;;;22.13;16.13;;;;;;;14.30;81.15;101393.63;5019300;28;20059;-69
2023/06/18 03:32:32;;;;;;;20.25;16.20;;;;;;;14.36;80.26;101400.44;5036223;28;20078;-69
2023/06/18 03:34:57;;;;;;;19.13;15.45;;;;;;;14.30;80.49;101393.63;5036625;28;20021;-69
2023/06/18 03:37:23;;;;;;;23.30;16.77;;;;;;;14.38;81.46;101403.88;5035988;28;20442;-70
2023/06/18 03:39:48;;;;;;;19.15;15.27;;;;;;;14.33;80.61;101404.09;5035527;28;20047;-69
2023/06/18 03:42:14;;;;;;;20.85;14.93;;;;;;;14.31;81.50;101400.69;5053925;28;20402;-70
2023/06/18 03:44:39;;;;;;;20.08;15.05;;;;;;;14.40;80.90;101404.63;5053565;28;20374;-70
2023/06/18 03:47:05;;;;;;;21.10;15.82;;;;;;;14.40;81.11;101402.84;5053571;28;20017;-69
2023/06/18 03:49:30;;;;;;;19.75;14.82;;;;;;;14.44;81.84;101406.16;5053439;28;20033;-70
2023/06/18 03:51:55;;;;;;;19.25;15.35;;;;;;;14.41;81.54;101401.03;5019174;28;20428;-69
2023/06/18 03:54:24;;;;;;;18.67;14.75;;;;;;;14.43;81.00;101399.13;5035656;28;20027;-69
2023/06/18 03:56:49;;;;;;;23.20;15.77;;;;;;;14.49;80.65;101409.44;5035542;28;20033;-70
2023/06/18 03:59:15;;;;;;;24.35;15.65;;;;;;;14.47;80.88;101406.00;5035495;28;20028;-69
2023/06/18 04:01:40;;;;;;;19.40;15.70;;;;;;;14.50;81.39;101405.81;5035760;28;20098;-69
2023/06/18 04:04:05;;;;;;;19.95;15.70;;;;;;;14.48;81.24;101402.38;5053406;28;20103;-70
2023/06/18 04:06:31;;;;;;;23.20;16.33;;;;;;;14.52;81.00;101409.25;5034871;28;20104;-69
2023/06/18 04:08:56;;;;;;;18.83;15.02;;;;;;;14.48;81.23;101399.72;5036155;28;20021;-68
2023/06/18 04:11:21;;;;;;;20.27;15.57;;;;;;;14.56;81.37;101412.59;5018966;28;20088;-69
2023/06/18 04:13:47;;;;;;;20.67;14.70;;;;;;;14.62;81.34;101404.25;5035142;28;20059;-69
2023/06/18 04:16:12;;;;;;;21.92;15.63;;;;;;;14.62;81.33;101398.06;5035391;28;20024;-69
2023/06/18 04:18:37;;;;;;;20.85;16.30;;;;;;;14.67;80.22;101395.97;5035652;28;20072;-69
2023/06/18 04:21:03;;;;;;;21.08;15.75;;;;;;;14.72;79.58;101393.94;5053498;28;20025;-69
2023/06/18 04:23:28;;;;;;;20.55;15.48;;;;;;;14.75;80.41;101400.91;5053569;28;20061;-69
2023/06/18 04:25:54;;;;;;;19.17;16.13;;;;;;;14.79;79.93;101405.09;5035522;28;20104;-68
2023/06/18 04:28:20;;;;;;;22.58;16.58;;;;;;;14.76;79.30;101408.78;5051578;28;20032;-69
2023/06/18 04:30:45;;;;;;;20.63;14.77;;;;;;;14.89;80.35;101405.44;5053025;28;20034;-68
2023/06/18 04:33:11;;;;;;;19.15;15.07;;;;;;;14.86;79.84;101395.81;5053304;28;20473;-69
2023/06/18 04:35:36;;;;;;;21.63;15.98;;;;;;;14.89;79.56;101400.09;5035198;28;20063;-69
2023/06/18 04:38:02;;;;;;;20.23;15.80;;;;;;;14.94;79.39;101401.53;5053154;28;20077;-69
2023/06/18 04:40:27;;;;;;;17.83;13.63;;;;;;;15.09;79.20;101393.56;5035162;28;20049;-69
2023/06/18 04:42:52;;;;;;;19.17;14.85;;;;;;;15.10;79.83;101400.59;5035260;28;20473;-69
2023/06/18 04:45:18;;;;;;;21.10;15.70;;;;;;;15.05;79.54;101395.56;5052720;28;20490;-69
2023/06/18 04:47:43;;;;;;;21.98;16.15;;;;;;;15.11;79.40;101395.19;5035245;28;20059;-69
2023/06/18 04:50:09;;;;;;;18.35;15.43;;;;;;;15.13;78.87;101393.28;5035039;28;20021;-70
2023/06/18 04:52:34;;;;;;;19.90;15.32;;;;;;;15.14;79.43;101405.66;5052961;28;20037;-69
2023/06/18 04:55:00;;;;;;;18.88;15.48;;;;;;;15.19;78.33;101394.75;5018800;28;20032;-68
2023/06/18 04:57:27;;;;;;;19.35;15.27;;;;;;;15.26;78.18;101397.88;5052967;28;20033;-69
2023/06/18 04:59:52;;;;;;;21.73;16.77;;;;;;;15.38;79.02;101399.78;5035487;28;20166;-69
2023/06/18 05:02:18;;;;;;;21.55;15.20;;;;;;;15.64;78.04;101386.66;5052617;28;20044;-69
2023/06/18 05:04:43;;;;;;;20.23;16.15;;;;;;;15.51;78.06;101389.22;5035205;28;20035;-68
2023/06/18 05:07:09;;;;;;;20.75;15.57;;;;;;;15.48;77.98;101385.88;5035594;28;20032;-69
2023/06/18 05:09:34;;;;;;;19.42;15.50;;;;;;;15.50;77.45;101394.66;5034546;28;20492;-69
2023/06/18 05:12:00;;;;;;;23.58;15.65;;;;;;;15.59;77.80;101404.78;5035263;28;20060;-68
2023/06/18 05:14:26;;;;;;;19.60;15.00;;;;;;;15.82;76.84;101394.47;5035162;28;20028;-68
2023/06/18 05:16:51;;;;;;;16.83;14.70;;;;;;;15.85;76.43;101402.25;5034788;28;20043;-70
2023/06/18 05:19:17;;;;;;;18.98;16.08;;;;;;;16.02;75.53;101395.91;5052763;28;20722;-68
2023/06/18 05:21:42;;;;;;;20.35;14.88;;;;;;;16.12;75.51;101412.16;5018423;28;20039;-68
2023/06/18 05:24:07;;;;;;;18.98;14.90;;;;;;;15.95;75.78;101407.91;5034496;28;20104;-68
2023/06/18 05:26:36;;;;;;;21.40;15.48;;;;;;;15.94;76.73;101408.88;5053225;28;20036;-69
2023/06/18 05:29:01;;;;;;;19.70;15.48;;;;;;;16.10;76.17;101411.41;5038596;28;20082;-69
2023/06/18 05:31:28;;;;;;;19.13;15.68;;;;;;;16.13;75.29;101409.41;5056445;28;20025;-68
2023/06/18 05:33:54;;;;;;;18.33;14.75;;;;;;;16.18;75.33;101417.09;5056418;28;20017;-67
2023/06/18 05:36:22;;;;;;;19.83;15.07;;;;;;;16.20;74.84;101409.84;5056484;28;20025;-69
2023/06/18 05:38:50;;;;;;;17.10;14.82;;;;;;;16.23;74.40;101417.66;5056339;28;20029;-70
2023/06/18 05:41:15;;;;;;;19.08;14.60;;;;;;;16.24;74.80;101427.38;5056179;28;20157;-69
2023/06/18 05:43:40;;;;;;;16.65;14.20;;;;;;;16.26;73.86;101411.28;5054798;28;20545;-70
2023/06/18 05:46:07;;;;;;;17.77;14.00;;;;;;;16.46;72.83;101418.00;5021827;28;20535;-68
2023/06/18 05:48:32;;;;;;;19.83;14.55;;;;;;;16.49;72.70;101409.78;5038030;28;20025;-70
2023/06/18 05:50:57;;;;;;;19.15;14.48;;;;;;;16.58;72.25;101409.16;5037726;28;20107;-69
2023/06/18 05:53:23;;;;;;;19.95;14.35;;;;;;;16.59;71.86;101410.88;5038062;28;20435;-71
2023/06/18 05:55:48;;;;;;;19.13;14.45;;;;;;;16.99;70.88;101417.19;5056324;28;20021;-70
2023/06/18 05:58:13;;;;;;;16.60;14.00;;;;;;;16.95;71.65;101412.97;5038789;28;20424;-70
2023/06/18 06:00:39;;;;;;;18.60;13.75;;;;;;;16.86;72.34;101412.66;5037906;28;20555;-69
2023/06/18 06:03:04;;;;;;;16.70;12.90;;;;;;;16.90;72.94;101414.16;5038278;28;20531;-70
2023/06/18 06:05:29;;;;;;;17.00;13.63;;;;;;;16.90;73.58;101414.16;5038506;28;20070;-70
2023/06/18 06:07:55;;;;;;;19.02;14.68;;;;;;;17.04;73.12;101410.56;5055381;28;20366;-70
2023/06/18 06:10:21;;;;;;;18.33;14.18;;;;;;;17.16;71.96;101419.59;5038018;28;20025;-70
2023/06/18 06:12:46;;;;;;;17.33;13.52;;;;;;;17.18;72.37;101412.31;5037424;28;20021;-69
2023/06/18 06:15:11;;;;;;;22.20;13.82;;;;;;;17.21;73.57;101421.09;5037169;28;20478;-69
2023/06/18 06:17:37;;;;;;;20.15;13.15;;;;;;;17.30;72.34;101420.44;5054645;28;20056;-70
2023/06/18 06:20:03;;;;;;;17.00;12.75;;;;;;;17.46;72.29;101421.09;5055074;28;20029;-71
2023/06/18 06:22:28;;;;;;;16.48;13.10;;;;;;;17.72;70.20;101426.41;5037261;28;20033;-72
2023/06/18 06:25:00;;;;;;;19.17;13.85;;;;;;;17.79;69.24;101437.53;5037868;28;20036;-70
2023/06/18 06:27:25;;;;;;;16.77;13.52;;;;;;;17.89;68.14;101435.91;5038076;28;20052;-71
2023/06/18 06:29:50;;;;;;;21.83;13.93;;;;;;;17.91;68.00;101425.94;5055101;28;20041;-70
2023/06/18 06:32:16;;;;;;;17.65;13.60;;;;;;;18.00;67.96;101429.84;5055282;28;20461;-70
2023/06/18 06:34:41;;;;;;;17.77;14.05;;;;;;;18.09;68.13;101432.81;5037231;28;20031;-70
2023/06/18 06:37:07;;;;;;;16.67;12.65;;;;;;;18.13;68.00;101424.41;5037294;28;20390;-69
2023/06/18 06:39:33;;;;;;;17.30;13.80;;;;;;;18.26;67.98;101421.72;5036141;28;20449;-69
2023/06/18 06:41:58;;;;;;;16.23;12.40;;;;;;;18.40;67.50;101426.06;5037235;28;20492;-69
2023/06/18 06:44:24;;;;;;;16.73;13.00;;;;;;;18.56;66.96;101425.78;5036886;28;20021;-69
2023/06/18 06:46:49;;;;;;;16.75;12.82;;;;;;;18.63;67.08;101428.84;5036975;28;20028;-70
2023/06/18 06:49:14;;;;;;;17.73;12.45;;;;;;;19.34;63.32;101426.16;5037593;28;20116;-70
2023/06/18 06:51:40;;;;;;;13.93;12.02;;;;;;;19.05;63.55;101425.72;5020568;28;20023;-71
2023/06/18 06:54:11;;;;;;;16.95;12.05;;;;;;;18.87;65.46;101423.47;5020755;28;20545;-71
2023/06/18 06:56:37;;;;;;;15.23;12.00;;;;;;;19.12;65.75;101435.00;5037985;28;20021;-70
2023/06/18 06:59:02;;;;;;;14.18;12.38;;;;;;;19.11;64.93;101425.25;5020071;28;20484;-71
2023/06/18 07:01:27;;;;;;;14.80;11.10;;;;;;;19.16;64.16;101423.06;5037590;28;20036;-71
2023/06/18 07:03:53;;;;;;;15.45;11.15;;;;;;;19.35;63.46;101427.03;5036862;28;20029;-72
2023/06/18 07:06:18;;;;;;;15.10;11.30;;;;;;;19.36;62.70;101418.00;5036705;28;20382;-68
2023/06/18 07:08:43;;;;;;;13.05;10.55;;;;;;;19.43;62.82;101421.91;5010638;28;20060;-69
2023/06/18 07:11:09;;;;;;;12.98;9.95;;;;;;;19.70;61.89;101419.84;5016862;28;20094;-70
2023/06/18 07:13:34;;;;;;;15.70;9.60;;;;;;;19.89;59.95;101413.84;5034617;28;20039;-70
2023/06/18 07:16:00;;;;;;;12.82;9.80;;;;;;;19.89;59.96;101424.59;5016968;28;20544;-71
2023/06/18 07:18:25;;;;;;;13.13;9.80;;;;;;;19.92;60.40;101427.06;5000342;28;20459;-70
2023/06/18 07:20:50;;;;;;;13.30;9.10;;;;;;;19.93;60.26;101428.75;5016366;28;20113;-70
2023/06/18 07:23:16;;;;;;;11.07;9.30;;;;;;;20.29;57.23;101421.38;5034943;28;20017;-71
2023/06/18 07:25:41;;;;;;;13.27;10.23;;;;;;;20.43;56.44;101417.53;5017092;28;20037;-69
2023/06/18 07:28:07;;;;;;;13.85;9.88;;;;;;;20.32;57.87;101421.13;5034451;28;20071;-70
2023/06/18 07:30:32;;;;;;;13.63;8.77;;;;;;;20.25;58.61;101430.69;5016267;28;20035;-71
2023/06/18 07:32:57;;;;;;;10.38;8.63;;;;;;;20.36;56.94;101421.72;5034180;28;20017;-71
2023/06/18 07:35:23;;;;;;;11.55;8.10;;;;;;;20.44;56.81;101424.63;5016163;28;20064;-72
2023/06/18 07:37:49;;;;;;;10.13;8.13;;;;;;;20.51;58.00;101420.47;5034004;28;20120;-70
2023/06/18 07:40:15;;;;;;;9.50;7.32;;;;;;;20.64;56.49;101425.66;5016332;28;20055;-68
2023/06/18 07:42:40;;;;;;;11.85;7.60;;;;;;;20.77;55.86;101414.72;5016052;28;20021;-69
2023/06/18 07:45:06;;;;;;;8.18;7.03;;;;;;;20.95;53.59;101415.06;4999906;28;20025;-69
2023/06/18 07:47:31;;;;;;;10.55;6.82;;;;;;;21.07;53.05;101414.97;5016107;28;20489;-69
2023/06/18 07:49:58;;;;;;;12.15;6.60;;;;;;;21.11;53.55;101419.94;5015953;28;20025;-70
2023/06/18 07:52:23;;;;;;;7.30;5.40;;;;;;;21.26;50.70;101423.16;5016107;28;20511;-69
2023/06/18 07:54:49;;;;;;;7.75;6.30;;;;;;;21.58;49.20;101418.66;5033666;28;20028;-69
2023/06/18 07:57:15;;;;;;;9.68;6.45;;;;;;;21.58;48.87;101423.16;5015616;28;20021;-70
2023/06/18 07:59:40;;;;;;;11.07;7.10;;;;;;;21.39;49.92;101422.09;5033526;28;20108;-70
2023/06/18 08:02:05;;;;;;;7.30;6.10;;;;;;;21.38;52.03;101406.94;5015412;28;20103;-69
2023/06/18 08:04:31;;;;;;;8.07;7.25;;;;;;;21.43;50.64;101414.63;5033906;28;20021;-70
2023/06/18 08:06:56;;;;;;;8.88;6.28;;;;;;;21.33;50.10;101409.19;5015827;28;20021;-69
2023/06/18 08:09:25;;;;;;;7.80;6.70;;;;;;;21.66;50.22;101426.09;5012500;28;20035;-68
2023/06/18 08:11:51;;;;;;;8.43;6.47;;;;;;;21.72;49.50;101412.09;5027459;28;20918;-70
2023/06/18 08:14:17;;;;;;;11.68;7.32;;;;;;;21.77;50.75;101417.91;5015438;28;20053;-70
2023/06/18 08:16:42;;;;;;;11.10;7.25;;;;;;;21.81;49.94;101413.97;5032594;28;20100;-69
2023/06/18 08:19:08;;;;;;;9.88;7.75;;;;;;;21.91;49.84;101413.13;5032678;28;20025;-70
2023/06/18 08:21:33;;;;;;;8.88;6.93;;;;;;;22.04;49.88;101408.34;5015990;28;20037;-70
2023/06/18 08:23:58;;;;;;;8.70;7.05;;;;;;;22.21;50.91;101408.66;5033699;28;20030;-69
2023/06/18 08:26:24;;;;;;;8.45;7.32;;;;;;;22.33;50.38;101407.53;5034104;28;20359;-69
2023/06/18 08:28:50;;;;;;;11.73;7.75;;;;;;;22.35;50.88;101410.97;5033649;28;20036;-69
2023/06/18 08:31:15;;;;;;;10.32;8.13;;;;;;;22.59;50.89;101412.44;5033047;28;20017;-69
2023/06/18 08:33:41;;;;;;;8.38;6.30;;;;;;;23.16;47.97;101414.38;5016006;28;20017;-69
2023/06/18 08:36:06;;;;;;;8.02;6.78;;;;;;;23.14;48.97;101416.34;5015407;28;20028;-69
2023/06/18 08:38:32;;;;;;;11.75;6.55;;;;;;;23.44;48.00;101420.69;5015572;28;20307;-70
2023/06/18 08:41:03;;;;;;;7.63;6.60;;;;;;;23.37;46.63;101405.25;5015093;28;20073;-69
2023/06/18 08:43:32;;;;;;;7.97;5.97;;;;;;;23.32;45.87;101402.97;4999741;28;20029;-69
2023/06/18 08:46:11;;;;;;;6.05;5.05;;;;;;;23.01;46.20;101401.31;5015715;28;20516;-70
2023/06/18 08:48:49;;;;;;;7.22;5.78;;;;;;;23.27;45.88;101406.13;5032895;28;20037;-71
2023/06/18 08:51:16;;;;;;;7.80;5.88;;;;;;;23.17;46.21;101399.88;5015252;28;20099;-70
2023/06/18 08:53:41;;;;;;;6.13;5.40;;;;;;;23.68;43.60;101396.84;5015306;28;20471;-69
2023/06/18 08:56:07;;;;;;;7.93;5.60;;;;;;;23.71;44.91;101399.25;5015174;28;20032;-69
2023/06/18 08:58:37;;;;;;;5.90;5.30;;;;;;;23.77;44.64;101401.34;5015855;28;20440;-71
2023/06/18 09:01:03;;;;;;;7.72;5.90;;;;;;;23.71;46.00;101391.16;5015664;28;20358;-71
2023/06/18 09:03:28;;;;;;;6.65;5.88;;;;;;;23.57;45.08;101396.06;5019238;28;20021;-70
2023/06/18 09:05:54;;;;;;;6.95;5.72;;;;;;;23.61;45.69;101399.31;5002644;28;20481;-70
2023/06/18 09:08:20;;;;;;;8.35;5.80;;;;;;;23.68;43.80;101389.63;5019032;28;20467;-70
2023/06/18 09:10:46;;;;;;;6.70;5.72;;;;;;;23.62;44.71;101397.47;5019251;28;20029;-71
2023/06/18 09:13:11;;;;;;;7.63;5.55;;;;;;;23.80;44.28;101394.81;5019385;28;20061;-69
2023/06/18 09:15:37;;;;;;;6.68;5.35;;;;;;;24.12;42.30;101393.50;5018657;28;20040;-70
2023/06/18 09:18:02;;;;;;;6.45;5.05;;;;;;;24.16;42.38;101390.38;5018844;28;20103;-70
2023/06/18 09:20:32;;;;;;;6.50;4.93;;;;;;;24.00;41.96;101392.91;5018516;28;20026;-70
2023/06/18 09:22:57;;;;;;;6.47;5.70;;;;;;;24.06;42.43;101389.59;5018635;28;20067;-70
2023/06/18 09:25:24;;;;;;;7.40;5.78;;;;;;;24.28;42.19;101379.31;5036812;28;20458;-71
2023/06/18 09:27:50;;;;;;;7.80;6.22;;;;;;;24.27;42.33;101385.72;5019363;28;20049;-71
2023/06/18 09:30:24;;;;;;;8.88;5.30;;;;;;;24.06;42.64;101381.47;5018650;28;20385;-70
2023/06/18 09:32:50;;;;;;;6.88;5.60;;;;;;;24.00;43.38;101380.22;5018987;28;20481;-70
2023/06/18 09:35:19;;;;;;;7.30;5.00;;;;;;;24.26;41.98;101386.75;5018977;28;20083;-71
2023/06/18 09:37:45;;;;;;;7.78;5.30;;;;;;;24.16;41.59;101381.38;5019120;28;20021;-71
2023/06/18 09:40:15;;;;;;;8.88;5.25;;;;;;;23.99;41.65;101377.66;5018333;28;20402;-71
2023/06/18 09:42:40;;;;;;;5.90;5.10;;;;;;;24.26;40.86;101384.03;5016767;28;20099;-69
2023/06/18 09:45:07;;;;;;;5.95;4.90;;;;;;;24.25;41.43;101371.53;5012812;28;20492;-69
2023/06/18 09:47:32;;;;;;;6.68;5.30;;;;;;;24.47;39.63;101364.81;5015379;28;20030;-71
2023/06/18 09:49:58;;;;;;;8.00;5.40;;;;;;;24.42;40.72;101370.66;5014168;28;20071;-71
2023/06/18 09:52:24;;;;;;;7.80;5.25;;;;;;;24.25;39.48;101361.56;5012837;28;20040;-70
2023/06/18 09:54:50;;;;;;;7.18;4.90;;;;;;;24.35;39.84;101363.34;4998592;28;20021;-70
2023/06/18 09:57:16;;;;;;;9.50;6.20;;;;;;;24.42;41.28;101361.72;4998248;28;20026;-71
2023/06/18 09:59:41;;;;;;;6.03;5.10;;;;;;;24.49;40.26;101356.50;4997789;28;20030;-72
2023/06/18 10:02:07;;;;;;;6.75;4.47;;;;;;;24.44;38.11;101362.41;4998781;28;20077;-72
2023/06/18 10:04:33;;;;;;;5.63;4.95;;;;;;;24.55;38.96;101364.88;4998157;28;20026;-71
2023/06/18 10:07:06;;;;;;;6.50;5.15;;;;;;;24.51;39.28;101370.72;5015633;28;20018;-70
2023/06/18 10:09:42;;;;;;;5.95;4.40;;;;;;;24.63;37.89;101364.09;4998455;28;20030;-70
2023/06/18 10:12:08;;;;;;;5.15;4.50;;;;;;;24.62;36.94;101362.41;4998508;28;20043;-71
2023/06/18 10:14:34;;;;;;;5.47;4.05;;;;;;;24.57;36.69;101360.16;5016115;28;20089;-72
2023/06/18 10:17:07;;;;;;;7.00;4.60;;;;;;;24.71;37.38;101361.44;5016010;28;20044;-71
2023/06/18 10:19:46;;;;;;;9.10;4.65;;;;;;;24.89;38.52;101357.88;5005859;28;20034;-72
2023/06/18 10:22:12;;;;;;;7.05;5.20;;;;;;;24.84;38.55;101354.81;4998781;28;20061;-71
2023/06/18 10:25:06;;;;;;;6.60;5.70;;;;;;;25.03;37.97;101338.34;5011244;28;20037;-71
2023/06/18 10:27:35;;;;;;;7.38;5.63;;;;;;;25.35;37.95;101345.94;4991075;28;20475;-71
2023/06/18 10:30:01;;;;;;;6.72;5.00;;;;;;;25.19;37.23;101347.56;5015514;28;20022;-72
2023/06/18 10:32:28;;;;;;;6.75;5.35;;;;;;;25.20;39.12;101345.72;5012903;28;20379;-71
2023/06/18 10:34:57;;;;;;;6.60;5.57;;;;;;;25.19;39.54;101347.56;5004841;28;20108;-73
2023/06/18 10:37:25;;;;;;;7.88;6.07;;;;;;;25.35;38.70;101327.84;5006275;28;20030;-75
2023/06/18 10:39:51;;;;;;;6.55;4.85;;;;;;;25.24;40.49;101337.09;5004630;28;20431;-72
2023/06/18 10:42:18;;;;;;;9.93;5.75;;;;;;;25.55;39.22;101336.59;4999459;28;20329;-72
2023/06/18 10:44:47;;;;;;;6.80;5.18;;;;;;;25.79;38.17;101339.56;5001769;28;20031;-70
2023/06/18 10:47:22;;;;;;;9.68;6.13;;;;;;;26.14;37.52;101333.03;5003014;28;20026;-70
2023/06/18 10:50:07;;;;;;;6.05;5.07;;;;;;;25.81;38.46;101329.41;5013296;28;20031;-70
2023/06/18 10:52:37;;;;;;;7.13;5.75;;;;;;;26.09;37.94;101316.38;5004745;28;20041;-71
2023/06/18 10:55:18;;;;;;;6.75;5.72;;;;;;;26.22;38.65;101325.94;5014833;28;20432;-71
2023/06/18 10:57:51;;;;;;;6.32;5.45;;;;;;;26.18;37.85;101330.84;5010507;28;20123;-71
2023/06/18 11:00:30;;;;;;;7.03;5.60;;;;;;;26.00;38.65;101323.69;4994656;28;20064;-71
2023/06/18 11:03:03;;;;;;;9.57;5.40;;;;;;;25.94;38.67;101328.91;4999099;28;20148;-73
2023/06/18 11:05:32;;;;;;;7.45;5.38;;;;;;;26.18;36.99;101334.41;4997104;28;20383;-71
2023/06/18 11:08:02;;;;;;;7.88;5.43;;;;;;;26.41;36.97;101325.59;4997884;28;20030;-71
2023/06/18 11:10:39;;;;;;;6.25;5.53;;;;;;;26.05;37.28;101331.28;5009674;28;20387;-72
2023/06/18 11:13:06;;;;;;;8.73;5.93;;;;;;;26.14;37.26;101335.75;4995349;28;20085;-71